Time;durP1;ratioP1;P1;durP2;ratioP2;P2;SDS_P1;SDS_P2;PMS_P1;PMS_P2;Temp;Humidity;BMP_temperature;BMP_pressure;BME280_temperature;BME280_humidity;BME280_pressure;Samples;Min_cycle;Max_cycle;Signal;HPM_P1;HPM_P2
2022/11/20 00:01:50;;;;;;;4.40;1.53;;;18.50;94.50;;;18.91;56.04;94214.06;5048848;28;20462;-53
2022/11/20 00:04:17;;;;;;;8.03;2.30;;;18.60;94.70;;;18.95;55.67;94206.50;5048872;28;20835;-54
2022/11/20 00:06:44;;;;;;;5.20;1.47;;;18.60;94.50;;;18.99;55.58;94221.03;5048452;28;20464;-58
2022/11/20 00:09:12;;;;;;;3.00;1.20;;;18.70;94.30;;;19.01;55.69;94208.31;5048490;28;21082;-52
2022/11/20 00:11:39;;;;;;;5.17;1.70;;;18.70;94.20;;;19.08;55.15;94189.66;5049348;28;20448;-57
2022/11/20 00:14:06;;;;;;;5.90;1.60;;;18.70;93.90;;;19.10;55.49;94216.91;5048574;28;20475;-56
2022/11/20 00:16:35;;;;;;;7.13;1.80;;;18.80;93.90;;;19.12;54.88;94194.34;5048831;28;20452;-56
2022/11/20 00:19:02;;;;;;;7.90;1.63;;;18.80;93.60;;;19.14;55.00;94210.94;5048849;28;20475;-55
2022/11/20 00:21:30;;;;;;;5.00;0.93;;;18.80;93.60;;;19.16;55.31;94184.06;5048358;28;20459;-52
2022/11/20 00:23:57;;;;;;;2.87;1.57;;;18.80;93.50;;;19.19;55.30;94225.50;5044768;28;20521;-54
2022/11/20 00:26:26;;;;;;;3.27;1.17;;;18.90;93.30;;;19.22;54.98;94204.56;5048465;28;20974;-56
2022/11/20 00:28:55;;;;;;;4.13;1.07;;;18.90;93.10;;;19.23;54.86;94219.53;5047788;28;20549;-55
2022/11/20 00:31:22;;;;;;;1.43;1.33;;;18.90;93.30;;;19.25;54.82;94190.00;5048433;28;20460;-56
2022/11/20 00:33:51;;;;;;;2.13;1.03;;;18.90;93.30;;;19.25;54.46;94198.81;5048108;28;20480;-56
2022/11/20 00:36:19;;;;;;;6.27;1.50;;;18.90;92.80;;;19.25;54.51;94209.47;5048597;28;20456;-55
2022/11/20 00:38:46;;;;;;;11.17;1.77;;;18.90;93.10;;;19.26;54.69;94205.78;5048459;28;20525;-53
2022/11/20 00:41:15;;;;;;;6.00;2.00;;;18.90;92.70;;;19.27;54.98;94195.94;5048782;28;20875;-55
2022/11/20 00:43:43;;;;;;;3.07;1.20;;;18.90;92.90;;;19.28;54.47;94209.06;5048309;28;20530;-55
2022/11/20 00:46:13;;;;;;;5.93;1.67;;;18.90;93.00;;;19.29;54.01;94210.72;5048438;28;20464;-55
2022/11/20 00:48:41;;;;;;;1.53;1.00;;;18.90;92.60;;;19.28;55.01;94206.38;5047875;28;20901;-56
2022/11/20 00:51:09;;;;;;;8.10;1.80;;;18.90;92.90;;;19.28;54.94;94206.38;5048411;28;21028;-55
2022/11/20 00:53:37;;;;;;;2.10;1.07;;;18.90;93.00;;;19.27;54.90;94211.94;5047878;28;20795;-55
2022/11/20 00:56:06;;;;;;;4.90;1.60;;;18.90;92.90;;;19.25;55.06;94206.81;5044171;28;20474;-55
2022/11/20 00:58:34;;;;;;;17.10;1.90;;;18.90;92.90;;;19.23;55.38;94195.53;5048004;28;20475;-55
2022/11/20 01:01:02;;;;;;;10.70;2.13;;;18.90;93.10;;;19.23;55.37;94200.88;5044693;28;20826;-55
2022/11/20 01:03:31;;;;;;;6.80;1.33;;;18.90;93.00;;;19.20;55.39;94200.50;5046987;28;20455;-55
2022/11/20 01:06:02;;;;;;;1.43;1.10;;;18.90;93.20;;;19.17;55.11;94193.72;5047923;28;20505;-55
2022/11/20 01:08:32;;;;;;;9.43;1.73;;;18.80;92.90;;;19.16;55.10;94205.41;5047364;28;20448;-54
2022/11/20 01:11:02;;;;;;;5.10;1.20;;;18.90;92.90;;;19.16;55.16;94195.56;5047496;28;20551;-55
2022/11/20 01:13:40;;;;;;;4.03;1.57;;;18.80;93.10;;;19.15;55.31;94171.78;5047135;28;20475;-56
2022/11/20 01:16:09;;;;;;;4.73;1.20;;;18.80;93.10;;;19.11;55.38;94144.72;5044925;28;20460;-55
2022/11/20 01:18:37;;;;;;;7.07;1.47;;;18.80;93.30;;;19.09;55.29;94181.44;5047879;28;20845;-55
2022/11/20 01:21:05;;;;;;;4.83;1.80;;;18.80;93.30;;;19.09;55.77;94175.28;5047689;28;20456;-55
2022/11/20 01:23:35;;;;;;;3.33;1.67;;;18.80;93.30;;;19.07;55.66;94180.00;5047392;28;20561;-56
2022/11/20 01:26:03;;;;;;;2.67;1.50;;;18.80;93.30;;;19.05;55.79;94171.41;5047726;28;20440;-53
2022/11/20 01:28:30;;;;;;;2.50;1.30;;;18.70;93.20;;;19.02;55.62;94188.63;5047327;28;20987;-55
2022/11/20 01:30:58;;;;;;;9.80;1.87;;;18.70;93.00;;;19.03;55.41;94182.28;5047298;28;20556;-55
2022/11/20 01:33:25;;;;;;;2.33;1.50;;;18.70;93.20;;;19.04;55.29;94162.59;5045743;28;20475;-55
2022/11/20 01:35:53;;;;;;;7.63;1.30;;;18.70;93.20;;;19.03;55.27;94190.28;5046982;28;20996;-52
2022/11/20 01:38:22;;;;;;;2.50;1.20;;;18.70;92.90;;;19.04;55.07;94172.41;5047296;28;20463;-56
2022/11/20 01:40:56;;;;;;;3.10;1.20;;;18.70;92.60;;;19.06;54.59;94159.72;5046584;28;20501;-56
2022/11/20 01:43:22;;;;;;;9.20;1.53;;;18.70;92.60;;;19.08;54.77;94157.66;5043131;28;20523;-57
2022/11/20 01:46:15;;;;;;;4.20;1.17;;;18.70;92.60;;;19.09;54.18;94160.13;5047062;28;20451;-58
2022/11/20 01:48:48;;;;;;;5.60;1.70;;;18.70;92.30;;;19.12;54.87;94172.22;5044567;28;20555;-55
2022/11/20 01:51:22;;;;;;;2.97;1.40;;;18.80;92.40;;;19.13;54.76;94189.81;5046668;28;20533;-54
2022/11/20 01:53:49;;;;;;;4.10;1.13;;;18.80;92.40;;;19.12;54.34;94183.69;5045307;28;20556;-56
2022/11/20 01:56:18;;;;;;;7.60;1.60;;;18.80;92.30;;;19.12;54.70;94181.03;5046989;28;20963;-55
2022/11/20 01:58:49;;;;;;;2.00;1.17;;;18.80;92.20;;;19.12;54.17;94191.69;5046708;28;20471;-55
2022/11/20 02:01:16;;;;;;;5.23;1.00;;;18.80;92.20;;;19.12;54.29;94177.53;5046498;28;20546;-55
2022/11/20 02:03:44;;;;;;;20.27;1.73;;;18.80;92.10;;;19.13;54.57;94166.66;5046047;28;20859;-55
2022/11/20 02:06:15;;;;;;;2.60;1.23;;;18.80;92.20;;;19.14;53.93;94165.63;5042937;28;20475;-58
2022/11/20 02:08:43;;;;;;;1.20;1.10;;;18.80;91.80;;;19.14;54.39;94178.13;5046386;28;20468;-54
2022/11/20 02:11:10;;;;;;;1.40;0.90;;;18.80;91.80;;;19.13;54.22;94189.81;5046201;28;20499;-56
2022/11/20 02:13:44;;;;;;;3.00;1.07;;;18.80;91.50;;;19.13;54.21;94179.16;5045854;28;21004;-56
2022/11/20 02:16:22;;;;;;;2.53;1.00;;;18.80;91.60;;;19.13;53.81;94163.16;5046965;28;20505;-56
2022/11/20 02:18:50;;;;;;;1.93;1.07;;;18.80;91.70;;;19.13;53.63;94157.84;5046749;28;20503;-54
2022/11/20 02:21:31;;;;;;;1.60;1.20;;;18.80;91.60;;;19.13;53.74;94189.81;5046156;28;20821;-56
2022/11/20 02:24:11;;;;;;;2.03;1.27;;;18.80;91.50;;;19.11;53.80;94181.22;5046655;28;21085;-55
2022/11/20 02:26:46;;;;;;;2.43;1.40;;;18.80;91.40;;;19.09;54.11;94183.28;5043349;28;20940;-55
2022/11/20 02:29:13;;;;;;;2.77;1.70;;;18.80;91.40;;;19.05;53.81;94166.88;5046347;28;20542;-53
2022/11/20 02:31:42;;;;;;;2.93;1.03;;;18.80;91.60;;;19.04;53.88;94169.75;5046489;28;20499;-53
2022/11/20 02:34:09;;;;;;;4.87;1.30;;;18.70;91.50;;;19.04;54.03;94185.75;5046866;28;20480;-54
2022/11/20 02:36:37;;;;;;;2.90;1.30;;;18.70;91.60;;;19.03;54.15;94182.28;5046677;28;20992;-56
2022/11/20 02:39:04;;;;;;;2.33;1.30;;;18.70;91.60;;;19.03;54.33;94179.59;5046596;28;20471;-55
2022/11/20 02:41:34;;;;;;;1.00;0.80;;;18.70;91.60;;;19.03;54.11;94200.13;5046567;28;20459;-55
2022/11/20 02:44:02;;;;;;;4.80;1.77;;;18.70;91.70;;;19.04;54.66;94170.59;5045314;28;20479;-54
2022/11/20 02:46:29;;;;;;;2.27;1.50;;;18.70;91.70;;;19.05;54.38;94188.19;5046524;28;20836;-56
2022/11/20 02:48:56;;;;;;;9.03;1.40;;;18.70;91.80;;;19.05;54.42;94188.19;5046388;28;21021;-55
2022/11/20 02:51:23;;;;;;;4.40;1.50;;;18.70;91.80;;;19.06;54.36;94199.69;5046492;28;20491;-55
2022/11/20 02:53:51;;;;;;;3.50;1.10;;;18.70;91.80;;;19.05;54.53;94198.06;5046316;28;20484;-56
2022/11/20 02:56:18;;;;;;;6.03;1.70;;;18.70;91.90;;;19.06;54.38;94199.69;5042673;28;20444;-56
2022/11/20 02:58:47;;;;;;;3.27;1.80;;;18.70;92.00;;;19.03;54.66;94205.44;5038600;28;20479;-55
2022/11/20 03:01:14;;;;;;;2.97;1.27;;;18.70;92.10;;;19.02;55.28;94211.78;5039496;28;20455;-55
2022/11/20 03:03:41;;;;;;;9.93;1.97;;;18.70;92.30;;;18.99;55.48;94205.88;5046169;28;20472;-55
2022/11/20 03:06:10;;;;;;;3.60;1.13;;;18.70;92.30;;;18.97;54.82;94205.25;5043627;28;20459;-54
2022/11/20 03:08:37;;;;;;;8.73;1.10;;;18.60;92.30;;;18.96;55.47;94230.28;5042835;28;21030;-55
2022/11/20 03:11:06;;;;;;;10.40;1.60;;;18.60;92.40;;;18.92;55.76;94213.03;5043244;28;20549;-56
2022/11/20 03:13:33;;;;;;;6.50;1.23;;;18.60;92.50;;;18.92;55.18;94222.91;5042389;28;20869;-55
2022/11/20 03:16:08;;;;;;;14.60;2.20;;;18.60;92.60;;;18.91;55.48;94227.38;5042958;28;20456;-56
2022/11/20 03:18:35;;;;;;;15.40;2.03;;;18.60;92.70;;;18.89;55.63;94216.13;5042565;28;20463;-57
2022/11/20 03:21:02;;;;;;;6.27;1.73;;;18.60;92.80;;;18.88;55.48;94229.66;5043165;28;20444;-57
2022/11/20 03:23:31;;;;;;;4.30;1.90;;;18.60;92.90;;;18.85;55.88;94206.09;5042257;28;20448;-55
2022/11/20 03:26:09;;;;;;;2.20;1.30;;;18.50;93.10;;;18.83;55.87;94218.78;5045877;28;20956;-55
2022/11/20 03:28:37;;;;;;;10.60;1.77;;;18.50;93.10;;;18.78;56.11;94230.88;5043567;28;20464;-55
2022/11/20 03:31:10;;;;;;;5.30;1.67;;;18.50;93.10;;;18.77;56.02;94229.22;5042684;28;21102;-56
2022/11/20 03:33:37;;;;;;;6.10;1.73;;;18.50;93.10;;;18.75;56.22;94251.78;5046029;28;20472;-54
2022/11/20 03:36:05;;;;;;;6.63;1.50;;;18.40;93.30;;;18.73;55.97;94244.00;5045976;28;20462;-61
2022/11/20 03:38:32;;;;;;;5.67;1.70;;;18.40;93.20;;;18.72;56.35;94239.69;5046016;28;20475;-56
2022/11/20 03:41:01;;;;;;;14.87;1.97;;;18.40;93.30;;;18.71;56.06;94255.88;5046145;28;20874;-57
2022/11/20 03:43:29;;;;;;;5.63;1.83;;;18.40;93.20;;;18.70;56.44;94251.56;5046275;28;20894;-56
2022/11/20 03:45:56;;;;;;;6.97;1.17;;;18.40;93.20;;;18.69;56.09;94247.28;5046115;28;20530;-55
2022/11/20 03:48:25;;;;;;;4.33;1.60;;;18.40;93.20;;;18.68;56.51;94253.63;5046118;28;20483;-54
2022/11/20 03:50:52;;;;;;;3.90;1.43;;;18.40;93.10;;;18.68;56.31;94256.28;5041852;28;20495;-56
2022/11/20 03:53:19;;;;;;;4.67;1.20;;;18.30;93.00;;;18.68;55.95;94256.28;5046071;28;20452;-55
2022/11/20 03:55:51;;;;;;;3.93;1.70;;;18.40;93.30;;;18.68;56.15;94257.09;5045834;28;20486;-54
2022/11/20 03:58:18;;;;;;;8.33;1.57;;;18.40;93.30;;;18.69;55.86;94272.06;5048335;28;20848;-54
2022/11/20 04:00:45;;;;;;;3.10;1.97;;;18.40;93.20;;;18.69;56.70;94271.25;5049080;28;20459;-53
2022/11/20 04:03:12;;;;;;;3.53;1.20;;;18.40;93.30;;;18.71;56.42;94269.19;5049362;28;20448;-56
2022/11/20 04:05:41;;;;;;;11.63;1.50;;;18.40;93.30;;;18.69;56.60;94269.38;5049432;28;20460;-53
2022/11/20 04:08:08;;;;;;;4.57;1.93;;;18.40;93.30;;;18.69;56.55;94274.72;5049435;28;20960;-56
2022/11/20 04:10:35;;;;;;;7.13;1.57;;;18.30;93.30;;;18.68;56.56;94257.09;5049063;28;20491;-55
2022/11/20 04:13:03;;;;;;;5.37;1.30;;;18.40;93.20;;;18.68;56.13;94265.06;5048920;28;20455;-55
2022/11/20 04:15:30;;;;;;;4.43;1.70;;;18.30;93.30;;;18.67;56.10;94249.31;5049158;28;20554;-54
2022/11/20 04:17:57;;;;;;;11.07;1.57;;;18.30;93.20;;;18.67;56.11;94230.66;5049278;28;20467;-55
2022/11/20 04:20:24;;;;;;;6.57;1.67;;;18.30;93.30;;;18.65;56.75;94238.84;5049693;28;20484;-56
2022/11/20 04:22:56;;;;;;;5.37;1.77;;;18.30;93.30;;;18.66;56.68;94247.69;5049159;28;20513;-56
2022/11/20 04:25:23;;;;;;;11.57;1.70;;;18.30;93.30;;;18.63;56.34;94244.38;5049179;28;20464;-55
2022/11/20 04:27:50;;;;;;;1.20;1.10;;;18.30;93.40;;;18.61;56.68;94253.63;5048983;28;20455;-54
2022/11/20 04:30:17;;;;;;;2.20;0.90;;;18.30;93.10;;;18.59;56.52;94253.81;5048127;28;20505;-56
2022/11/20 04:32:45;;;;;;;8.00;1.70;;;18.30;93.10;;;18.54;56.54;94242.94;5049018;28;20528;-54
2022/11/20 04:35:12;;;;;;;4.20;1.40;;;18.30;93.20;;;18.58;56.30;94262.03;5048571;28;20472;-55
2022/11/20 04:37:39;;;;;;;11.70;1.40;;;18.30;93.20;;;18.57;56.46;94266.50;5048824;28;20448;-57
2022/11/20 04:40:09;;;;;;;4.23;2.10;;;18.30;93.10;;;18.56;56.30;94256.06;5048484;28;20468;-53
2022/11/20 04:42:36;;;;;;;3.00;1.00;;;18.20;93.10;;;18.56;55.88;94251.56;5048489;28;20858;-54
2022/11/20 04:45:04;;;;;;;9.20;1.20;;;18.20;93.00;;;18.54;56.08;94250.13;5047260;28;20479;-55
2022/11/20 04:47:31;;;;;;;3.03;1.30;;;18.20;93.20;;;18.53;56.92;94238.66;5048268;28;20460;-54
2022/11/20 04:49:58;;;;;;;1.30;1.00;;;18.20;93.30;;;18.51;56.45;94238.03;5048556;28;20472;-57
2022/11/20 04:52:26;;;;;;;3.23;1.20;;;18.20;93.40;;;18.50;56.76;94235.56;5047885;28;20459;-55
2022/11/20 04:54:53;;;;;;;1.77;1.23;;;18.20;93.50;;;18.48;56.67;94230.44;5047967;28;20834;-53
2022/11/20 04:57:22;;;;;;;4.60;1.10;;;18.10;93.40;;;18.46;56.91;94235.16;5047733;28;20909;-55
2022/11/20 04:59:49;;;;;;;1.73;0.70;;;18.10;93.50;;;18.43;56.82;94224.94;5046988;28;20470;-53
2022/11/20 05:02:16;;;;;;;1.43;0.77;;;18.10;93.50;;;18.41;57.24;94230.44;5047655;28;20609;-54
2022/11/20 05:04:44;;;;;;;4.27;1.13;;;18.10;93.60;;;18.38;57.35;94214.06;5047793;28;20480;-55
2022/11/20 05:07:11;;;;;;;4.80;1.00;;;18.10;93.70;;;18.38;57.22;94227.38;5047857;28;20451;-55
2022/11/20 05:09:38;;;;;;;5.07;1.00;;;18.00;93.80;;;18.35;57.11;94217.97;5047266;28;20466;-56
2022/11/20 05:12:07;;;;;;;4.23;1.30;;;18.10;93.90;;;18.35;57.46;94214.47;5047333;28;20500;-55
2022/11/20 05:14:36;;;;;;;4.27;1.63;;;18.10;93.90;;;18.33;57.13;94216.53;5047617;28;21034;-56
2022/11/20 05:17:03;;;;;;;4.13;1.30;;;18.00;93.90;;;18.31;57.63;94219.41;5043665;28;20456;-55
2022/11/20 05:19:30;;;;;;;6.67;1.23;;;18.00;94.00;;;18.32;57.35;94214.91;5047542;28;20816;-55
2022/11/20 05:21:58;;;;;;;1.93;1.40;;;18.00;94.00;;;18.31;57.42;94235.38;5047741;28;20482;-56
2022/11/20 05:24:25;;;;;;;6.00;1.40;;;18.00;94.10;;;18.31;57.77;94246.03;5047709;28;20571;-53
2022/11/20 05:26:52;;;;;;;1.00;0.77;;;18.00;94.20;;;18.31;57.45;94239.88;5048410;28;20850;-54
2022/11/20 05:29:19;;;;;;;3.00;1.10;;;18.00;94.20;;;18.28;57.89;94227.81;5047199;28;20464;-55
2022/11/20 05:31:48;;;;;;;6.60;1.17;;;18.00;94.30;;;18.28;57.46;94230.47;5047582;28;21052;-55
2022/11/20 05:34:15;;;;;;;6.57;1.20;;;18.00;94.40;;;18.25;57.64;94230.88;5045999;28;21089;-55
2022/11/20 05:36:43;;;;;;;2.03;1.83;;;18.00;94.50;;;18.23;57.72;94232.88;5048004;28;20509;-55
2022/11/20 05:39:10;;;;;;;4.50;2.17;;;17.90;94.50;;;18.23;57.85;94224.91;5048132;28;20903;-55
2022/11/20 05:41:37;;;;;;;7.53;1.80;;;17.90;94.60;;;18.22;58.07;94239.25;5047445;28;20539;-55
2022/11/20 05:44:05;;;;;;;2.70;1.30;;;17.90;94.70;;;18.22;58.46;94240.06;5047172;28;21184;-57
2022/11/20 05:46:32;;;;;;;5.20;2.20;;;17.90;94.80;;;18.22;58.08;94236.59;5046984;28;20455;-56
2022/11/20 05:49:01;;;;;;;10.50;1.27;;;17.90;95.20;;;18.21;57.93;94246.41;5047097;28;20479;-57
2022/11/20 05:51:28;;;;;;;4.10;1.20;;;17.90;94.90;;;18.22;58.22;94239.25;5046777;28;20525;-53
2022/11/20 05:53:57;;;;;;;3.43;1.90;;;17.90;94.90;;;18.22;57.82;94247.25;5047160;28;21016;-55
2022/11/20 05:56:24;;;;;;;7.97;2.27;;;17.90;94.90;;;18.20;58.60;94242.13;5046516;28;20454;-56
2022/11/20 05:58:51;;;;;;;5.83;1.30;;;17.90;94.90;;;18.21;57.86;94235.75;5046232;28;20683;-55
2022/11/20 06:01:20;;;;;;;8.13;1.40;;;17.90;94.80;;;18.23;57.85;94251.53;5047033;28;20565;-56
2022/11/20 06:03:49;;;;;;;3.20;1.17;;;17.90;94.80;;;18.22;58.15;94253.38;5044360;28;20480;-53
2022/11/20 06:06:18;;;;;;;1.73;1.27;;;17.90;94.70;;;18.23;58.38;94252.38;5046782;28;20945;-55
2022/11/20 06:08:45;;;;;;;6.73;1.60;;;17.90;94.70;;;18.22;57.68;94247.25;5046859;28;20476;-56
2022/11/20 06:11:13;;;;;;;5.70;1.33;;;17.90;94.70;;;18.23;57.64;94265.69;5046410;28;20491;-55
2022/11/20 06:13:40;;;;;;;4.53;0.87;;;17.90;94.70;;;18.24;57.73;94261.97;5046418;28;20468;-56
2022/11/20 06:16:08;;;;;;;3.87;1.50;;;17.90;94.60;;;18.27;57.75;94263.41;5046135;28;20959;-56
2022/11/20 06:18:35;;;;;;;2.70;1.47;;;18.00;94.60;;;18.28;58.01;94262.41;5046716;28;20484;-55
2022/11/20 06:21:04;;;;;;;4.87;1.77;;;18.00;94.60;;;18.30;58.17;94249.69;5046083;28;20789;-55
2022/11/20 06:23:33;;;;;;;5.37;1.50;;;18.00;94.60;;;18.35;57.78;94249.09;5046732;28;20456;-57
2022/11/20 06:26:03;;;;;;;3.77;1.47;;;18.10;94.50;;;18.44;57.17;94253.19;5046098;28;20448;-56
2022/11/20 06:28:30;;;;;;;2.80;1.70;;;18.10;94.40;;;18.49;57.66;94252.59;5045724;28;20555;-56
2022/11/20 06:30:58;;;;;;;7.67;2.40;;;18.10;94.20;;;18.54;57.03;94255.44;5046014;28;20913;-55
2022/11/20 06:33:25;;;;;;;6.10;1.90;;;18.20;94.10;;;18.58;56.95;94260.16;5044726;28;20460;-55
2022/11/20 06:35:52;;;;;;;2.80;1.20;;;18.20;94.10;;;18.64;56.60;94259.34;5046003;28;20440;-54
2022/11/20 06:38:19;;;;;;;6.60;1.47;;;18.30;94.00;;;18.65;56.37;94254.84;5045511;28;20460;-55
2022/11/20 06:40:48;;;;;;;3.13;1.00;;;18.30;93.80;;;18.70;56.31;94257.72;5042458;28;20879;-54
2022/11/20 06:43:15;;;;;;;6.40;1.17;;;18.40;93.80;;;18.76;56.72;94262.22;5042457;28;20452;-56
2022/11/20 06:45:43;;;;;;;4.00;1.70;;;18.40;93.60;;;18.80;56.06;94270.63;5046456;28;20463;-56
2022/11/20 06:48:10;;;;;;;5.30;2.50;;;18.50;93.50;;;18.82;56.00;94273.88;5046075;28;20547;-56
2022/11/20 06:50:38;;;;;;;1.47;1.23;;;18.50;93.20;;;18.87;55.99;94276.81;5046256;28;20542;-56
2022/11/20 06:53:05;;;;;;;8.67;1.33;;;18.50;93.10;;;18.94;55.77;94271.47;5046543;28;20841;-56
2022/11/20 06:55:32;;;;;;;3.63;1.00;;;18.60;93.20;;;19.02;55.91;94273.91;5046356;28;20487;-52
2022/11/20 06:58:01;;;;;;;8.87;1.60;;;18.60;93.20;;;19.08;55.31;94258.94;5045075;28;20455;-56
2022/11/20 07:00:29;;;;;;;6.07;1.50;;;18.70;92.90;;;19.11;55.41;94251.34;5045719;28;20494;-56
2022/11/20 07:02:56;;;;;;;52.60;30.30;;;18.70;92.90;;;19.14;55.29;94261.59;5044738;28;20498;-56
2022/11/20 07:05:23;;;;;;;7.30;1.70;;;18.80;92.80;;;19.15;55.68;94273.09;5046122;28;20483;-55
2022/11/20 07:07:50;;;;;;;12.80;3.60;;;18.80;92.70;;;19.15;55.16;94284.56;5045438;28;20963;-55
2022/11/20 07:10:18;;;;;;;2.60;1.17;;;18.80;92.60;;;19.17;54.73;94308.34;5045816;28;20471;-55
2022/11/20 07:12:51;;;;;;;1.43;1.23;;;18.80;92.50;;;19.16;54.89;94312.03;5045395;28;20583;-53
2022/11/20 07:15:20;;;;;;;3.77;1.37;;;18.80;92.50;;;19.14;54.84;94301.56;5045792;28;20535;-56
2022/11/20 07:17:47;;;;;;;10.37;2.30;;;18.80;92.50;;;19.15;55.00;94311.22;5042947;28;20459;-54
2022/11/20 07:20:14;;;;;;;4.47;1.37;;;18.80;92.60;;;19.16;55.73;94317.38;5045793;28;20468;-55
2022/11/20 07:22:42;;;;;;;2.63;1.57;;;18.80;92.70;;;19.12;55.99;94297.50;5045384;28;20451;-56
2022/11/20 07:25:10;;;;;;;1.77;1.10;;;18.80;92.90;;;19.08;55.70;94304.25;5045635;28;21018;-57
2022/11/20 07:27:37;;;;;;;5.23;1.80;;;18.80;93.00;;;19.04;56.30;94292.34;5044952;28;20990;-56
2022/11/20 07:30:06;;;;;;;3.00;2.40;;;18.70;93.20;;;19.03;56.34;94301.41;5045189;28;20472;-55
2022/11/20 07:32:35;;;;;;;9.07;3.90;;;18.70;93.20;;;18.99;56.59;94304.47;5048618;28;20921;-56
2022/11/20 07:35:02;;;;;;;4.10;1.43;;;18.70;93.20;;;18.96;56.23;94304.88;5050010;28;20472;-55
2022/11/20 07:37:30;;;;;;;8.47;2.17;;;18.60;93.20;;;18.90;56.30;94313.72;5049523;28;20928;-55
2022/11/20 07:39:57;;;;;;;5.77;1.60;;;18.60;93.40;;;18.86;56.35;94315.13;5049710;28;20476;-55
2022/11/20 07:42:24;;;;;;;7.93;1.77;;;18.50;93.50;;;18.86;56.72;94319.66;5049499;28;20530;-56
2022/11/20 07:44:51;;;;;;;3.80;1.63;;;18.50;93.60;;;18.86;56.64;94322.31;5049382;28;20467;-55
2022/11/20 07:47:19;;;;;;;10.67;2.90;;;18.50;93.80;;;18.86;57.16;94306.31;5049398;28;20448;-54
2022/11/20 07:49:47;;;;;;;6.37;2.43;;;18.50;93.80;;;18.88;57.52;94302.41;5049640;28;20478;-55
2022/11/20 07:52:14;;;;;;;12.53;1.90;;;18.50;94.00;;;18.90;57.35;94311.03;5049362;28;20553;-55
2022/11/20 07:54:42;;;;;;;5.87;1.87;;;18.50;94.10;;;18.93;57.42;94307.13;5049148;28;20472;-57
2022/11/20 07:57:10;;;;;;;7.27;1.40;;;18.60;94.10;;;18.94;56.87;94304.25;5048864;28;20447;-56
2022/11/20 07:59:38;;;;;;;2.40;1.10;;;18.60;94.10;;;18.97;57.32;94311.03;5048795;28;20476;-58
2022/11/20 08:02:05;;;;;;;5.50;1.43;;;18.60;94.10;;;18.98;57.45;94300.16;5045383;28;20455;-56
2022/11/20 08:04:33;;;;;;;5.83;1.30;;;18.60;94.10;;;18.99;57.03;94319.63;5048684;28;20849;-55
2022/11/20 08:07:02;;;;;;;2.90;1.83;;;18.60;94.00;;;18.99;57.10;94317.81;5049119;28;20535;-56
2022/11/20 08:09:29;;;;;;;2.73;1.73;;;18.60;94.10;;;19.02;57.34;94321.06;5049064;28;20476;-56
2022/11/20 08:14:41;;;;;;;12.13;4.93;;;18.70;93.90;;;19.09;56.47;94312.06;5048647;28;20616;-56
2022/11/20 08:17:08;;;;;;;7.27;2.60;;;18.70;93.60;;;19.12;56.61;94311.63;5049011;28;20960;-56
2022/11/20 08:19:35;;;;;;;6.30;1.73;;;18.80;93.50;;;19.17;56.22;94311.81;5043249;28;20863;-54
2022/11/20 08:22:04;;;;;;;3.13;1.57;;;18.80;93.50;;;19.27;55.93;94306.09;5047278;28;20451;-53
2022/11/20 08:24:31;;;;;;;3.37;2.70;;;18.90;93.50;;;19.41;55.97;94311.38;5048065;28;20471;-56
2022/11/20 08:26:59;;;;;;;2.43;2.03;;;19.00;93.40;;;19.52;55.70;94318.78;5048421;28;20460;-55
2022/11/20 08:29:27;;;;;;;5.80;1.90;;;19.10;93.10;;;19.58;55.47;94325.09;5048149;28;20504;-57
2022/11/20 08:31:54;;;;;;;10.67;1.70;;;19.20;92.60;;;19.56;55.36;94335.97;5047013;28;20502;-54
2022/11/20 08:34:21;;;;;;;7.17;1.50;;;19.20;92.50;;;19.51;55.65;94341.13;5048113;28;20476;-55
2022/11/20 08:36:49;;;;;;;8.50;2.10;;;19.10;92.90;;;19.45;55.85;94333.97;5047207;28;20976;-57
2022/11/20 08:39:17;;;;;;;8.00;2.00;;;19.10;93.40;;;19.44;56.84;94333.16;5047996;28;20556;-55
2022/11/20 08:41:45;;;;;;;5.53;1.57;;;19.10;93.90;;;19.45;56.94;94339.28;5046618;28;20882;-54
2022/11/20 08:44:12;;;;;;;11.90;2.10;;;19.10;94.30;;;19.36;57.34;94346.69;5044737;28;20544;-57
2022/11/20 08:46:40;;;;;;;6.50;1.53;;;19.00;94.50;;;19.25;57.94;94347.31;5045892;28;20448;-57
2022/11/20 08:49:09;;;;;;;7.70;2.27;;;19.00;94.80;;;19.09;59.36;94353.91;5043837;28;20468;-57
2022/11/20 08:51:36;;;;;;;8.27;1.90;;;18.80;95.50;;;18.97;59.88;94351.00;5046759;28;20549;-61
2022/11/20 08:54:04;;;;;;;5.40;2.00;;;18.70;96.00;;;18.84;62.21;94350.97;5044826;28;20468;-56
2022/11/20 08:56:33;;;;;;;7.70;1.90;;;18.60;97.50;;;18.68;60.92;94344.19;5047102;28;20447;-55
2022/11/20 08:59:00;;;;;;;8.73;2.33;;;18.50;97.10;;;18.55;62.98;94324.50;5045138;28;20455;-57
2022/11/20 09:01:28;;;;;;;8.07;2.60;;;18.30;98.30;;;18.51;64.11;94339.22;5044349;28;20552;-61
2022/11/20 09:03:57;;;;;;;11.33;2.30;;;18.20;99.10;;;18.52;62.83;94343.53;5043829;28;20486;-56
2022/11/20 09:06:24;;;;;;;2.40;2.13;;;18.20;98.90;;;18.46;63.10;94336.34;5043543;28;20504;-57
2022/11/20 09:08:53;;;;;;;7.17;2.50;;;18.10;98.80;;;18.40;62.83;94348.66;5045713;28;20479;-57
2022/11/20 09:11:20;;;;;;;4.77;2.77;;;18.10;99.30;;;18.36;63.09;94354.59;5044187;28;20453;-55
2022/11/20 09:13:49;;;;;;;12.10;1.93;;;18.00;99.20;;;18.29;63.36;94357.22;5045726;28;20474;-56
2022/11/20 09:16:16;;;;;;;10.33;2.13;;;18.00;99.60;;;18.24;63.50;94372.97;5041626;28;20518;-55
2022/11/20 09:18:43;;;;;;;7.63;2.67;;;18.00;99.70;;;18.20;63.91;94377.88;5045276;28;20463;-56
2022/11/20 09:21:12;;;;;;;3.03;2.13;;;17.90;99.80;;;18.16;64.11;94365.97;5043925;28;20985;-56
2022/11/20 09:23:39;;;;;;;6.67;2.10;;;17.90;99.90;;;18.09;63.98;94354.47;5044823;28;20456;-60
2022/11/20 09:26:08;;;;;;;5.30;1.70;;;17.80;99.90;;;18.00;64.38;94361.00;5045899;28;20466;-61
2022/11/20 09:28:35;;;;;;;8.23;1.80;;;17.70;99.90;;;17.92;64.49;94362.81;5046328;28;20484;-56
2022/11/20 09:31:06;;;;;;;9.37;1.60;;;17.70;99.90;;;17.85;64.81;94347.81;5046752;28;20876;-63
2022/11/20 09:33:33;;;;;;;9.50;2.17;;;17.60;99.90;;;17.80;66.12;94343.09;5046111;28;20498;-62
2022/11/20 09:36:00;;;;;;;7.03;2.43;;;17.60;99.90;;;17.79;65.36;94329.97;5046984;28;20447;-57
2022/11/20 09:38:28;;;;;;;5.07;2.00;;;17.50;99.90;;;17.78;66.04;94326.47;5046866;28;20451;-59
2022/11/20 09:40:59;;;;;;;4.60;1.80;;;17.50;99.90;;;17.80;66.56;94318.31;5044088;28;20566;-63
2022/11/20 09:43:33;;;;;;;2.33;2.00;;;17.50;99.90;;;17.88;66.90;94315.50;5043657;28;20770;-55
2022/11/20 09:46:09;;;;;;;3.53;1.70;;;17.60;99.90;;;18.09;67.57;94319.88;5046679;28;20446;-57
2022/11/20 09:49:05;;;;;;;3.40;1.53;;;17.70;99.90;;;18.44;67.62;94309.94;5046127;28;20471;-63
2022/11/20 09:51:40;;;;;;;11.90;1.90;;;18.00;99.90;;;18.79;65.78;94308.94;5045351;28;20467;-65
2022/11/20 09:54:17;;;;;;;7.57;1.47;;;18.30;99.90;;;19.07;65.84;94303.44;5044553;28;20483;-65
2022/11/20 09:56:45;;;;;;;5.57;1.50;;;18.60;99.90;;;19.34;64.89;94300.75;5045633;28;20455;-62
2022/11/20 09:59:24;;;;;;;12.53;2.53;;;18.80;99.90;;;19.71;64.02;94309.06;5046211;28;20479;-57
2022/11/20 10:01:53;;;;;;;7.70;2.40;;;19.10;99.90;;;20.15;62.52;94299.44;5045006;28;20449;-56
2022/11/20 10:04:21;;;;;;;9.80;2.20;;;19.60;99.90;;;20.65;60.88;94295.28;5042177;28;20475;-55
2022/11/20 10:06:53;;;;;;;5.47;2.40;;;20.00;99.70;;;20.97;60.19;94301.41;5046622;28;20444;-63
2022/11/20 10:09:26;;;;;;;8.47;2.10;;;20.30;99.20;;;21.29;60.20;94302.16;5045779;28;20952;-55
2022/11/20 10:12:03;;;;;;;6.63;2.37;;;20.70;99.30;;;21.73;59.15;94291.44;5044966;28;20471;-57
2022/11/20 10:14:37;;;;;;;4.00;2.00;;;21.10;98.30;;;22.08;57.35;94293.50;5041767;28;20467;-61
2022/11/20 10:17:14;;;;;;;3.43;2.03;;;21.40;97.30;;;22.31;56.28;94290.16;5043069;28;20440;-63
2022/11/20 10:19:53;;;;;;;8.20;2.23;;;21.70;96.70;;;22.35;56.60;94285.97;5046204;28;20491;-56
2022/11/20 10:22:32;;;;;;;8.80;3.07;;;21.80;96.40;;;22.27;57.04;94293.47;5046094;28;20447;-56
2022/11/20 10:25:04;;;;;;;10.77;2.40;;;21.80;96.30;;;22.06;56.92;94292.94;5045255;28;21045;-55
2022/11/20 10:28:14;;;;;;;7.37;2.73;;;21.70;95.60;;;21.72;56.54;94287.16;5045981;28;20467;-59